Time;durP1;ratioP1;P1;durP2;ratioP2;P2;SDS_P1;SDS_P2;PMS_P1;PMS_P2;Temp;Humidity;BMP_temperature;BMP_pressure;BME280_temperature;BME280_humidity;BME280_pressure;Samples;Min_cycle;Max_cycle;Signal;HPM_P1;HPM_P2
2023/07/19 00:01:19;;;;;;;6.97;4.75;;;;;;;;;;4149528;28;20394;-80
2023/07/19 00:03:21;;;;;;;8.35;4.32;;;;;;;;;;4148792;28;20052;-80
2023/07/19 00:05:22;;;;;;;5.18;3.88;;;;;;;;;;4148907;28;20121;-80
2023/07/19 00:07:24;;;;;;;6.38;3.97;;;;;;;;;;4148290;28;20064;-80
2023/07/19 00:09:25;;;;;;;6.72;3.10;;;;;;;;;;4114643;28;20102;-80
2023/07/19 00:11:27;;;;;;;4.47;2.80;;;;;;;;;;4131232;28;20121;-80
2023/07/19 00:13:28;;;;;;;5.40;2.78;;;;;;;;;;4148228;28;20085;-80
2023/07/19 00:15:30;;;;;;;5.25;2.65;;;;;;;;;;4131431;28;20414;-80
2023/07/19 00:17:31;;;;;;;4.30;3.35;;;;;;;;;;4148703;28;20557;-80
2023/07/19 00:19:32;;;;;;;4.10;3.28;;;;;;;;;;4148748;28;20045;-80
2023/07/19 00:21:33;;;;;;;6.28;3.35;;;;;;;;;;4131258;28;20097;-80
2023/07/19 00:23:34;;;;;;;7.88;3.90;;;;;;;;;;4147867;28;20050;-80
2023/07/19 00:25:35;;;;;;;5.78;4.38;;;;;;;;;;4148625;28;20096;-80
2023/07/19 00:27:37;;;;;;;8.40;5.43;;;;;;;;;;4148148;28;20508;-80
2023/07/19 00:29:38;;;;;;;7.50;5.20;;;;;;;;;;4148688;28;20139;-80
2023/07/19 00:31:39;;;;;;;9.00;5.95;;;;;;;;;;4148365;28;20042;-80
2023/07/19 00:33:40;;;;;;;11.48;7.10;;;;;;;;;;4130751;28;20054;-81
2023/07/19 00:35:41;;;;;;;8.05;5.80;;;;;;;;;;4148722;28;20085;-80
2023/07/19 00:37:43;;;;;;;11.38;6.50;;;;;;;;;;4148360;28;20041;-80
2023/07/19 00:39:44;;;;;;;10.10;6.30;;;;;;;;;;4148126;28;20057;-80
2023/07/19 00:41:45;;;;;;;8.30;6.07;;;;;;;;;;4147919;28;20104;-80
2023/07/19 00:43:49;;;;;;;9.02;6.22;;;;;;;;;;4148029;28;20133;-80
2023/07/19 00:45:54;;;;;;;10.13;6.22;;;;;;;;;;4147996;28;20046;-80
2023/07/19 00:47:56;;;;;;;8.25;5.63;;;;;;;;;;4148118;28;20037;-80
2023/07/19 00:49:57;;;;;;;9.68;6.35;;;;;;;;;;4148155;28;20042;-80
2023/07/19 00:51:59;;;;;;;8.85;5.78;;;;;;;;;;4147901;28;20050;-80
2023/07/19 00:54:01;;;;;;;8.98;6.10;;;;;;;;;;4148387;28;20042;-80
2023/07/19 00:56:02;;;;;;;7.50;4.90;;;;;;;;;;4148158;28;20054;-80
2023/07/19 00:58:03;;;;;;;8.68;4.63;;;;;;;;;;4148056;28;20046;-80
2023/07/19 01:00:05;;;;;;;5.93;3.83;;;;;;;;;;4148057;28;20107;-80
2023/07/19 01:02:06;;;;;;;7.30;3.97;;;;;;;;;;4114630;28;20050;-80
2023/07/19 01:04:07;;;;;;;7.10;4.28;;;;;;;;;;4148147;28;20038;-80
2023/07/19 01:06:08;;;;;;;10.02;4.57;;;;;;;;;;4114393;28;20495;-80
2023/07/19 01:08:09;;;;;;;8.07;4.25;;;;;;;;;;4147362;28;20378;-80
2023/07/19 01:10:12;;;;;;;7.78;3.72;;;;;;;;;;4147762;28;20497;-80
2023/07/19 01:12:13;;;;;;;6.78;4.18;;;;;;;;;;4147591;28;20081;-80
2023/07/19 01:14:15;;;;;;;9.25;4.10;;;;;;;;;;4147935;28;20096;-80
2023/07/19 01:16:16;;;;;;;6.82;3.60;;;;;;;;;;4147961;28;20045;-80
2023/07/19 01:18:20;;;;;;;7.63;3.50;;;;;;;;;;4147739;28;20135;-80
2023/07/19 01:20:21;;;;;;;6.03;3.78;;;;;;;;;;4147544;28;20049;-80
2023/07/19 01:22:22;;;;;;;8.23;4.03;;;;;;;;;;4147602;28;20088;-80
2023/07/19 01:24:23;;;;;;;7.75;3.65;;;;;;;;;;4147903;28;20053;-80
2023/07/19 01:26:24;;;;;;;7.97;3.75;;;;;;;;;;4147809;28;20057;-80
2023/07/19 01:28:26;;;;;;;4.85;2.90;;;;;;;;;;4147682;28;20057;-80
2023/07/19 01:30:27;;;;;;;7.72;3.53;;;;;;;;;;4148115;28;20359;-80
2023/07/19 01:32:28;;;;;;;4.72;2.80;;;;;;;;;;4147979;28;20413;-80
2023/07/19 01:34:29;;;;;;;5.05;2.60;;;;;;;;;;4147908;28;20081;-80
2023/07/19 01:36:30;;;;;;;4.32;2.40;;;;;;;;;;4148002;28;20038;-80
2023/07/19 01:38:31;;;;;;;6.13;2.50;;;;;;;;;;4114700;28;20047;-80
2023/07/19 01:40:33;;;;;;;3.63;2.30;;;;;;;;;;4151143;28;20100;-80
2023/07/19 01:42:34;;;;;;;8.57;2.45;;;;;;;;;;4150625;28;20038;-80
2023/07/19 01:44:35;;;;;;;4.30;2.58;;;;;;;;;;4133353;28;20046;-80
2023/07/19 01:46:38;;;;;;;6.30;2.30;;;;;;;;;;4151298;28;20038;-80
2023/07/19 01:48:39;;;;;;;6.07;2.40;;;;;;;;;;4150523;28;20053;-80
2023/07/19 01:50:40;;;;;;;3.92;2.42;;;;;;;;;;4151131;28;20057;-80
2023/07/19 01:52:42;;;;;;;4.72;2.47;;;;;;;;;;4150890;28;20155;-80
2023/07/19 01:54:43;;;;;;;5.60;2.42;;;;;;;;;;4150817;28;20061;-80
2023/07/19 01:56:44;;;;;;;6.43;2.25;;;;;;;;;;4150615;28;20077;-80
2023/07/19 01:58:45;;;;;;;3.58;2.40;;;;;;;;;;4150628;28;20045;-80
2023/07/19 02:00:46;;;;;;;5.78;2.47;;;;;;;;;;4133378;28;20039;-80
2023/07/19 02:02:47;;;;;;;3.22;2.25;;;18.70;99.90;;;;;;4150908;28;20395;-80
2023/07/19 02:04:48;;;;;;;7.20;2.35;;;17.50;99.90;;;;;;4150449;28;20125;-80
2023/07/19 02:06:48;;;;;;;6.00;2.42;;;17.60;99.90;;;;;;4150167;28;20555;-80
2023/07/19 02:08:50;;;;;;;4.57;2.17;;;17.50;99.90;;;;;;4150608;28;20053;-80
2023/07/19 02:10:50;;;;;;;4.07;2.08;;;17.50;99.90;;;;;;4150941;28;20041;-80
2023/07/19 02:12:51;;;;;;;4.88;2.35;;;18.00;99.90;;;;;;4150215;28;20135;-80
2023/07/19 02:14:54;;;;;;;4.32;3.00;;;17.40;99.90;;;;;;4150459;28;20046;-80
2023/07/19 02:16:55;;;;;;;5.65;2.35;;;17.40;99.90;;;;;;4150103;28;20109;-80
2023/07/19 02:18:56;;;;;;;4.85;2.60;;;17.50;99.90;;;;;;4150235;28;20042;-80
2023/07/19 02:20:57;;;;;;;3.65;2.38;;;17.20;99.90;;;;;;4150386;28;20100;-80
2023/07/19 02:22:58;;;;;;;6.25;2.30;;;17.30;99.90;;;;;;4151366;28;20100;-80
2023/07/19 02:24:59;;;;;;;4.50;2.80;;;17.70;99.90;;;;;;4150895;28;20073;-81
2023/07/19 02:26:59;;;;;;;4.82;2.40;;;17.50;99.90;;;;;;4150028;28;20504;-80
2023/07/19 02:29:00;;;;;;;5.47;2.60;;;17.60;99.90;;;;;;4132931;28;20058;-80
2023/07/19 02:31:03;;;;;;;3.65;1.92;;;17.40;99.90;;;;;;4132218;28;20153;-80
2023/07/19 02:33:03;;;;;;;3.65;2.25;;;16.80;99.90;;;;;;4132727;28;20053;-80
2023/07/19 02:35:04;;;;;;;9.35;2.85;;;17.60;99.90;;;;;;4132688;28;20058;-80
2023/07/19 02:37:05;;;;;;;5.15;2.63;;;17.40;99.90;;;;;;4149799;28;20482;-80
2023/07/19 02:39:06;;;;;;;3.88;2.20;;;17.20;99.90;;;;;;4150318;28;20050;-81
2023/07/19 02:41:07;;;;;;;5.15;2.28;;;17.40;99.90;;;;;;4150358;28;20054;-80
2023/07/19 02:43:08;;;;;;;4.03;2.72;;;17.60;99.90;;;;;;4149467;28;20759;-80
2023/07/19 02:45:09;;;;;;;3.72;2.30;;;17.40;99.90;;;;;;4150119;28;20048;-80
2023/07/19 02:47:12;;;;;;;2.83;2.22;;;17.40;99.90;;;;;;4132593;28;20144;-80
2023/07/19 02:49:13;;;;;;;4.55;2.47;;;17.20;99.90;;;;;;4150212;28;20042;-80
2023/07/19 02:51:13;;;;;;;3.38;2.22;;;17.20;99.90;;;;;;4149891;28;20493;-80
2023/07/19 02:53:15;;;;;;;8.00;3.58;;;17.50;99.90;;;;;;4149216;28;20108;-80
2023/07/19 02:55:16;;;;;;;7.05;2.78;;;17.20;99.90;;;;;;4150252;28;20053;-80
2023/07/19 02:57:16;;;;;;;6.72;3.30;;;17.20;99.90;;;;;;4149705;28;20050;-80
2023/07/19 02:59:17;;;;;;;4.72;2.92;;;17.20;99.90;;;;;;4150172;28;20054;-80
2023/07/19 03:01:18;;;;;;;7.88;4.07;;;17.20;99.90;;;;;;4149877;28;20050;-80
2023/07/19 03:03:19;;;;;;;5.43;3.10;;;17.20;99.90;;;;;;4149575;28;20084;-80
2023/07/19 03:05:20;;;;;;;4.72;3.10;;;17.30;99.90;;;;;;4132734;28;20050;-80
2023/07/19 03:07:21;;;;;;;5.72;3.20;;;17.20;99.90;;;;;;4131293;28;20430;-80
2023/07/19 03:09:22;;;;;;;5.50;3.20;;;17.20;99.90;;;;;;4133369;28;20046;-80
2023/07/19 03:11:23;;;;;;;4.63;2.75;;;17.10;99.90;;;;;;4133346;28;20479;-80
2023/07/19 03:13:24;;;;;;;5.35;3.55;;;17.10;99.90;;;;;;4133380;28;20394;-80
2023/07/19 03:15:25;;;;;;;8.00;2.92;;;17.10;99.90;;;;;;4132243;28;20050;-80
2023/07/19 03:17:25;;;;;;;4.82;2.85;;;17.20;99.90;;;;;;4133284;28;20046;-80
2023/07/19 03:19:26;;;;;;;5.70;3.45;;;17.10;99.90;;;;;;4133983;28;20117;-80
2023/07/19 03:21:27;;;;;;;4.97;2.75;;;17.10;99.90;;;;;;4133311;28;20050;-80
2023/07/19 03:23:31;;;;;;;6.35;2.70;;;17.10;99.90;;;;;;4133132;28;20398;-80
2023/07/19 03:25:32;;;;;;;6.43;2.92;;;17.10;99.90;;;;;;4132028;28;20054;-80
2023/07/19 03:27:33;;;;;;;5.15;2.63;;;17.10;99.90;;;;;;4132707;28;20038;-80
2023/07/19 03:29:34;;;;;;;9.60;3.58;;;17.10;99.90;;;;;;4133237;28;20049;-80
2023/07/19 03:31:34;;;;;;;4.57;3.00;;;17.10;99.90;;;;;;4133091;28;20052;-80
2023/07/19 03:33:35;;;;;;;5.35;2.80;;;17.10;99.90;;;;;;4132365;28;20443;-80
2023/07/19 03:35:36;;;;;;;5.18;2.78;;;17.10;99.90;;;;;;4133412;28;20398;-80
2023/07/19 03:37:37;;;;;;;7.25;3.35;;;17.20;99.90;;;;;;4133492;28;20054;-80
2023/07/19 03:39:38;;;;;;;6.53;2.90;;;17.10;99.90;;;;;;4132941;28;20042;-80
2023/07/19 03:41:39;;;;;;;5.70;2.92;;;17.10;99.90;;;;;;4133079;28;20441;-80
2023/07/19 03:43:39;;;;;;;7.82;3.15;;;17.10;99.90;;;;;;4132730;28;20105;-80
2023/07/19 03:45:40;;;;;;;6.53;3.38;;;17.00;99.90;;;;;;4131233;28;20054;-80
2023/07/19 03:47:41;;;;;;;8.07;3.40;;;17.10;99.90;;;;;;4132000;28;20043;-80
2023/07/19 03:49:43;;;;;;;8.20;3.63;;;17.10;99.90;;;;;;4132622;28;20053;-80
2023/07/19 03:51:43;;;;;;;6.60;2.88;;;17.10;99.90;;;;;;4131427;28;20576;-80
2023/07/19 03:53:44;;;;;;;5.57;3.08;;;17.10;99.90;;;;;;4132835;28;20034;-80
2023/07/19 03:55:53;;;;;;;10.10;3.10;;;17.10;99.90;;;;;;4132530;28;20054;-80
2023/07/19 03:57:54;;;;;;;9.18;3.22;;;17.00;99.90;;;;;;4131282;28;20046;-80
2023/07/19 03:59:55;;;;;;;12.85;3.75;;;17.00;99.90;;;;;;4132775;28;20056;-80
2023/07/19 04:01:57;;;;;;;9.88;3.55;;;17.00;99.90;;;;;;4132375;28;20384;-80
2023/07/19 04:03:58;;;;;;;7.22;3.10;;;17.00;99.90;;;;;;4132569;28;20049;-80
2023/07/19 04:05:59;;;;;;;8.32;3.20;;;16.90;99.90;;;;;;4132848;28;20042;-80
2023/07/19 04:08:01;;;;;;;6.70;3.42;;;16.90;99.90;;;;;;4144873;28;20054;-80
2023/07/19 04:10:02;;;;;;;8.98;3.72;;;16.90;99.90;;;;;;4148908;28;20038;-80
2023/07/19 04:12:03;;;;;;;6.57;3.50;;;17.00;99.90;;;;;;4131089;28;20100;-80
2023/07/19 04:14:03;;;;;;;10.82;3.97;;;16.90;99.90;;;;;;4148721;28;20859;-80
2023/07/19 04:16:04;;;;;;;8.52;3.80;;;16.90;99.90;;;;;;4148289;28;20049;-80
2023/07/19 04:18:05;;;;;;;8.57;3.75;;;16.90;99.90;;;;;;4148525;28;20045;-80
2023/07/19 04:20:07;;;;;;;10.02;3.97;;;16.90;99.90;;;;;;4148359;28;20128;-80
2023/07/19 04:22:08;;;;;;;6.88;3.88;;;17.00;99.90;;;;;;4148216;28;20098;-80
2023/07/19 04:24:09;;;;;;;7.10;4.20;;;16.90;99.90;;;;;;4148130;28;20477;-80
2023/07/19 04:26:10;;;;;;;8.43;4.32;;;17.00;99.90;;;;;;4148440;28;20096;-80
2023/07/19 04:28:11;;;;;;;6.90;3.80;;;17.00;99.90;;;;;;4148389;28;20045;-80
2023/07/19 04:30:12;;;;;;;7.78;4.28;;;17.00;99.90;;;;;;4148784;28;20072;-80
2023/07/19 04:32:12;;;;;;;7.40;4.15;;;17.00;99.90;;;;;;4148497;28;20490;-80
2023/07/19 04:34:13;;;;;;;7.45;4.40;;;17.00;99.90;;;;;;4147836;28;20092;-80
2023/07/19 04:36:15;;;;;;;7.45;4.40;;;17.00;99.90;;;;;;4148371;28;20041;-80
2023/07/19 04:38:16;;;;;;;6.68;4.47;;;17.10;99.90;;;;;;4130708;28;20053;-80
2023/07/19 04:40:17;;;;;;;6.20;4.20;;;17.00;99.90;;;;;;4148538;28;20049;-80
2023/07/19 04:42:21;;;;;;;6.15;3.97;;;17.10;99.90;;;;;;4148334;28;20068;-80
2023/07/19 04:44:22;;;;;;;8.23;4.40;;;17.00;99.90;;;;;;4148556;28;20081;-80
2023/07/19 04:46:23;;;;;;;8.77;4.05;;;17.10;99.90;;;;;;4130759;28;20053;-80
2023/07/19 04:48:24;;;;;;;8.80;4.03;;;17.10;99.90;;;;;;4147702;28;20053;-80
2023/07/19 04:50:25;;;;;;;6.72;3.40;;;17.10;99.90;;;;;;4148066;28;20509;-80
2023/07/19 04:52:25;;;;;;;5.55;3.90;;;17.20;99.90;;;;;;4130252;28;20051;-80
2023/07/19 04:54:26;;;;;;;10.75;4.50;;;17.10;99.90;;;;;;4148196;28;20558;-80
2023/07/19 04:56:27;;;;;;;7.82;4.00;;;17.00;99.90;;;;;;4130387;28;20137;-80
2023/07/19 04:58:28;;;;;;;6.20;3.97;;;17.00;99.90;;;;;;4147753;28;20046;-80
2023/07/19 05:00:29;;;;;;;6.45;3.85;;;17.00;99.90;;;;;;4147469;28;20079;-80
2023/07/19 05:02:30;;;;;;;6.55;3.85;;;17.00;99.90;;;;;;4131847;28;20150;-80
2023/07/19 05:04:31;;;;;;;4.95;3.45;;;17.00;99.90;;;;;;4148528;28;20041;-80
2023/07/19 05:06:32;;;;;;;8.18;4.63;;;17.00;99.90;;;;;;4147814;28;20042;-80
2023/07/19 05:08:32;;;;;;;5.10;3.15;;;17.00;99.90;;;;;;4147610;28;20099;-80
2023/07/19 05:10:37;;;;;;;9.98;3.63;;;17.00;99.90;;;;;;4148083;28;20497;-80
2023/07/19 05:12:38;;;;;;;9.70;4.72;;;17.00;99.90;;;;;;4147362;28;20038;-80
2023/07/19 05:14:38;;;;;;;5.68;3.67;;;16.90;99.90;;;;;;4147194;28;20087;-80
2023/07/19 05:16:39;;;;;;;6.30;3.58;;;17.00;99.90;;;;;;4130437;28;20043;-80
2023/07/19 05:18:40;;;;;;;7.88;3.85;;;17.00;99.90;;;;;;4147292;28;20049;-80
2023/07/19 05:20:41;;;;;;;5.30;2.95;;;17.00;99.90;;;;;;4147715;28;20041;-80
2023/07/19 05:22:41;;;;;;;6.82;3.75;;;17.00;99.90;;;;;;4130320;28;20050;-80
2023/07/19 05:24:43;;;;;;;5.68;3.00;;;17.10;99.90;;;;;;4130353;28;20043;-80
2023/07/19 05:26:44;;;;;;;6.57;3.83;;;17.00;99.90;;;;;;4130284;28;20083;-80
2023/07/19 05:28:48;;;;;;;6.72;3.50;;;17.00;99.90;;;;;;4146946;28;20413;-80
2023/07/19 05:30:49;;;;;;;5.50;3.40;;;17.10;99.90;;;;;;4147849;28;20045;-80
2023/07/19 05:32:49;;;;;;;5.53;3.17;;;17.10;99.90;;;;;;4147601;28;20041;-80
2023/07/19 05:34:50;;;;;;;5.82;2.85;;;17.10;99.90;;;;;;4147617;28;20038;-80
2023/07/19 05:36:51;;;;;;;5.50;3.33;;;17.10;99.90;;;;;;4147760;28;20077;-80
2023/07/19 05:38:52;;;;;;;7.07;3.33;;;17.10;99.90;;;;;;4147150;28;20413;-80
2023/07/19 05:40:58;;;;;;;6.22;3.17;;;17.10;99.90;;;;;;4147685;28;20505;-79
2023/07/19 05:42:59;;;;;;;7.28;3.20;;;17.10;99.90;;;;;;4147408;28;20042;-80
2023/07/19 05:44:59;;;;;;;10.27;3.13;;;17.30;99.90;;;;;;4147896;28;20088;-79
2023/07/19 05:47:00;;;;;;;6.28;3.13;;;17.20;99.90;;;;;;4147462;28;20045;-79
2023/07/19 05:49:01;;;;;;;8.50;3.13;;;17.10;99.90;;;;;;4147483;28;20046;-79
2023/07/19 05:51:03;;;;;;;7.28;3.10;;;17.10;99.90;;;;;;4147215;28;20129;-79
2023/07/19 05:53:04;;;;;;;7.60;2.95;;;17.10;99.90;;;;;;4147569;28;20042;-79
2023/07/19 05:55:05;;;;;;;7.28;3.42;;;17.20;99.90;;;;;;4147671;28;20092;-79
2023/07/19 05:57:06;;;;;;;9.55;3.05;;;17.20;99.90;;;;;;4148002;28;20085;-80
2023/07/19 05:59:07;;;;;;;6.30;2.95;;;17.10;99.90;;;;;;4147530;28;20148;-79
2023/07/19 06:01:09;;;;;;;7.90;3.38;;;17.10;99.90;;;;;;4147445;28;20077;-79
2023/07/19 06:03:10;;;;;;;6.15;3.15;;;17.10;99.90;;;;;;4130128;28;20499;-79
2023/07/19 06:05:12;;;;;;;5.70;3.50;;;17.10;99.90;;;;;;4147197;28;20052;-79
2023/07/19 06:07:15;;;;;;;6.38;3.35;;;17.10;99.90;;;;;;4129087;28;20072;-79
2023/07/19 06:09:17;;;;;;;5.90;2.90;;;17.10;99.90;;;;;;4129702;28;20051;-77
2023/07/19 06:11:18;;;;;;;6.93;2.63;;;17.10;99.90;;;;;;4147531;28;20053;-77
2023/07/19 06:13:19;;;;;;;9.40;3.28;;;17.50;99.90;;;;;;4141864;28;20040;-77
2023/07/19 06:15:20;;;;;;;6.63;2.78;;;17.10;99.90;;;;;;4147186;28;20121;-77
2023/07/19 06:17:21;;;;;;;7.25;2.85;;;17.10;99.90;;;;;;4147350;28;20398;-77
2023/07/19 06:19:22;;;;;;;6.35;3.72;;;17.10;99.90;;;;;;4147060;28;20125;-77
2023/07/19 06:21:25;;;;;;;5.13;2.65;;;17.10;99.90;;;;;;4148177;28;20042;-77
2023/07/19 06:23:25;;;;;;;6.60;2.63;;;17.10;99.90;;;;;;4147420;28;20046;-77
2023/07/19 06:25:26;;;;;;;6.78;2.22;;;17.00;99.90;;;;;;4148803;28;20080;-77
2023/07/19 06:27:27;;;;;;;6.40;2.90;;;17.00;99.90;;;;;;4150290;28;20485;-77
2023/07/19 06:29:28;;;;;;;4.95;2.22;;;16.90;99.90;;;;;;4150354;28;20049;-77
2023/07/19 06:31:29;;;;;;;5.18;2.30;;;16.90;99.90;;;;;;4149665;28;20081;-77
2023/07/19 06:33:29;;;;;;;5.68;2.53;;;16.90;99.90;;;;;;4150172;28;20375;-78
2023/07/19 06:35:30;;;;;;;4.25;1.90;;;16.90;99.90;;;;;;4132966;28;20064;-77
2023/07/19 06:37:34;;;;;;;9.13;2.10;;;16.90;99.90;;;;;;4132315;28;20089;-77
2023/07/19 06:39:35;;;;;;;7.85;2.15;;;16.90;99.90;;;;;;4149846;28;20042;-77
2023/07/19 06:41:36;;;;;;;5.60;1.67;;;16.90;99.90;;;;;;4150169;28;20147;-77
2023/07/19 06:43:37;;;;;;;5.78;1.67;;;16.90;99.90;;;;;;4153005;28;20433;-76
2023/07/19 06:45:38;;;;;;;4.68;1.60;;;16.90;99.90;;;;;;4156331;28;20069;-77
2023/07/19 06:47:38;;;;;;;4.60;1.65;;;16.90;99.90;;;;;;4153230;28;20053;-77
2023/07/19 06:49:39;;;;;;;2.97;1.25;;;16.90;99.90;;;;;;4150805;28;20498;-77
2023/07/19 06:51:40;;;;;;;2.35;1.40;;;17.00;99.90;;;;;;4150097;28;20053;-77
2023/07/19 06:53:41;;;;;;;3.22;2.08;;;16.90;99.90;;;;;;4149075;28;20096;-77
2023/07/19 06:55:42;;;;;;;5.72;1.95;;;16.90;99.90;;;;;;4150048;28;20129;-77
2023/07/19 06:57:42;;;;;;;4.75;1.70;;;16.90;99.90;;;;;;4149742;28;20044;-77
2023/07/19 06:59:43;;;;;;;5.72;1.90;;;17.00;99.90;;;;;;4150429;28;20116;-77
2023/07/19 07:01:44;;;;;;;4.22;1.38;;;17.00;99.90;;;;;;4149728;28;20038;-77
2023/07/19 07:03:44;;;;;;;7.05;2.40;;;17.10;99.90;;;;;;4149748;28;20141;-77
2023/07/19 07:05:45;;;;;;;6.15;1.83;;;17.10;99.90;;;;;;4149734;28;20046;-77
2023/07/19 07:07:46;;;;;;;4.35;1.58;;;17.10;99.90;;;;;;4148544;28;20421;-77
2023/07/19 07:09:47;;;;;;;7.28;1.88;;;17.20;99.90;;;;;;4132392;28;20096;-77
2023/07/19 07:11:48;;;;;;;4.68;1.70;;;17.30;99.90;;;;;;4133216;28;20053;-78
2023/07/19 07:13:48;;;;;;;8.07;2.65;;;17.40;99.90;;;;;;4151270;28;20061;-78
2023/07/19 07:15:51;;;;;;;5.25;2.03;;;17.50;99.90;;;;;;4149772;28;20041;-78
2023/07/19 07:17:52;;;;;;;3.78;1.90;;;17.50;99.90;;;;;;4116642;28;20896;-78
2023/07/19 07:19:53;;;;;;;5.82;1.90;;;17.60;99.90;;;;;;4150240;28;20052;-78
2023/07/19 07:21:54;;;;;;;3.47;1.45;;;17.70;99.90;;;;;;4150866;28;20453;-78
2023/07/19 07:23:55;;;;;;;7.55;2.17;;;17.80;99.90;;;;;;4150186;28;20050;-78
2023/07/19 07:25:56;;;;;;;4.35;1.85;;;17.80;99.90;;;;;;4150162;28;20048;-79
2023/07/19 07:27:59;;;;;;;3.25;1.70;;;17.90;99.90;;;;;;4150305;28;20100;-78
2023/07/19 07:29:59;;;;;;;5.40;2.05;;;17.90;99.90;;;;;;4151467;28;20524;-79
2023/07/19 07:32:01;;;;;;;7.90;2.38;;;17.90;99.90;;;;;;4151330;28;20050;-78
2023/07/19 07:34:01;;;;;;;6.15;1.90;;;17.90;99.90;;;;;;4150190;28;20054;-79
2023/07/19 07:36:04;;;;;;;3.72;1.83;;;18.00;99.90;;;;;;4150184;28;20125;-78
2023/07/19 07:38:05;;;;;;;8.60;2.42;;;18.00;99.90;;;;;;4149275;28;20533;-81
2023/07/19 07:40:08;;;;;;;7.85;1.80;;;;;;;;;;4149305;28;20096;-78
2023/07/19 07:42:09;;;;;;;4.78;1.35;;;18.00;99.90;;;;;;4150397;28;20125;-77
2023/07/19 07:44:11;;;;;;;2.03;1.20;;;18.10;99.90;;;;;;4150372;28;20486;-77
2023/07/19 07:46:12;;;;;;;6.15;1.60;;;18.40;99.90;;;;;;4161790;28;20042;-78
2023/07/19 07:48:12;;;;;;;4.25;1.15;;;18.30;99.90;;;;;;4159370;28;20052;-78
2023/07/19 07:50:14;;;;;;;3.17;1.10;;;18.50;99.90;;;;;;4152110;28;20045;-79
2023/07/19 07:52:15;;;;;;;5.93;1.73;;;18.80;99.90;;;;;;4136581;28;20053;-79
2023/07/19 07:54:17;;;;;;;5.45;1.75;;;18.60;99.90;;;;;;4150870;28;20502;-79
2023/07/19 07:56:18;;;;;;;3.08;1.00;;;18.70;99.90;;;;;;4151264;28;20104;-79
2023/07/19 07:58:19;;;;;;;1.90;0.98;;;18.80;99.90;;;;;;4132617;28;20042;-79
2023/07/19 08:00:20;;;;;;;4.50;1.13;;;18.70;99.90;;;;;;4133504;28;20561;-79
2023/07/19 08:02:21;;;;;;;4.72;1.20;;;18.80;99.90;;;;;;4133555;28;20062;-79
2023/07/19 08:04:21;;;;;;;3.47;1.00;;;18.80;99.90;;;;;;4133665;28;20057;-80
2023/07/19 08:06:22;;;;;;;6.00;1.45;;;18.90;99.90;;;;;;4133110;28;20533;-80
2023/07/19 08:08:23;;;;;;;3.22;1.50;;;19.00;99.90;;;;;;4132789;28;20058;-80
2023/07/19 08:10:24;;;;;;;6.43;1.85;;;19.00;99.90;;;;;;4149486;28;20042;-80
2023/07/19 08:12:25;;;;;;;3.30;1.20;;;19.00;99.90;;;;;;4149200;28;20037;-79
2023/07/19 08:14:28;;;;;;;3.67;1.25;;;19.10;99.90;;;;;;4148678;28;20442;-79
2023/07/19 08:16:29;;;;;;;6.72;2.17;;;;;;;;;;4148492;28;20045;-79
2023/07/19 08:18:30;;;;;;;7.50;1.75;;;19.70;99.90;;;;;;4148641;28;20092;-79
2023/07/19 08:20:31;;;;;;;3.33;1.20;;;19.70;99.90;;;;;;4149853;28;20525;-79
2023/07/19 08:22:33;;;;;;;4.13;1.30;;;;;;;;;;4150747;28;20045;-79
2023/07/19 08:24:34;;;;;;;2.63;1.40;;;;;;;;;;4132525;28;20130;-80
2023/07/19 08:26:35;;;;;;;4.20;1.60;;;;;;;;;;4150796;28;20402;-79
2023/07/19 08:28:37;;;;;;;3.50;1.20;;;;;;;;;;4149888;28;20449;-80
2023/07/19 08:30:38;;;;;;;5.68;1.55;;;;;;;;;;4132214;28;20051;-80
2023/07/19 08:32:39;;;;;;;6.53;1.55;;;;;;;;;;4148795;28;20118;-80
2023/07/19 08:34:40;;;;;;;6.03;1.50;;;;;;;;;;4149269;28;20053;-80
2023/07/19 08:36:41;;;;;;;4.43;1.40;;;;;;;;;;4149490;28;20486;-78
2023/07/19 08:38:42;;;;;;;3.92;1.67;;;;;;;;;;4149646;28;20072;-78
2023/07/19 08:40:47;;;;;;;3.55;1.30;;;;;;;;;;4148695;28;20049;-78
2023/07/19 08:42:50;;;;;;;7.93;2.30;;;;;;;;;;4148290;28;20141;-78
2023/07/19 08:44:52;;;;;;;5.32;1.30;;;;;;;;;;4148087;28;20081;-79
2023/07/19 08:46:53;;;;;;;9.73;1.30;;;;;;;;;;4148248;28;20041;-78
2023/07/19 08:48:54;;;;;;;5.10;1.10;;;;;;;;;;4147739;28;20081;-80
2023/07/19 08:50:56;;;;;;;3.97;1.20;;;;;;;;;;4148489;28;20398;-77
2023/07/19 08:53:02;;;;;;;1.77;1.00;;;;;;;;;;4147856;28;20061;-78
2023/07/19 08:55:03;;;;;;;2.47;1.00;;;;;;;;;;4147846;28;20042;-78
2023/07/19 08:57:05;;;;;;;4.97;1.20;;;;;;;;;;4147398;28;20042;-78
2023/07/19 08:59:06;;;;;;;3.78;0.85;;;;;;;;;;4142409;28;20121;-87
2023/07/19 09:01:08;;;;;;;2.50;0.90;;;;;;;;;;4114910;28;20134;-87
2023/07/19 09:03:09;;;;;;;3.78;1.00;;;;;;;;;;4099647;28;20051;-79
2023/07/19 09:05:11;;;;;;;7.13;1.58;;;;;;;;;;4127031;28;20101;-78
2023/07/19 09:07:13;;;;;;;5.25;1.00;;;;;;;;;;4149866;28;20104;-78
2023/07/19 09:09:14;;;;;;;5.82;1.65;;;;;;;;;;4147991;28;20137;-78
2023/07/19 09:11:20;;;;;;;3.22;0.80;;;;;;;;;;4147936;28;20425;-78
2023/07/19 09:13:22;;;;;;;1.95;1.05;;;;;;;;;;4147744;28;20049;-78
2023/07/19 09:15:23;;;;;;;5.88;1.25;;;;;;;;;;4130383;28;20086;-78
2023/07/19 09:17:28;;;;;;;4.63;1.05;;;;;;;;;;4148102;28;20074;-78
2023/07/19 09:19:30;;;;;;;5.43;1.20;;;;;;;;;;4147175;28;20057;-78
2023/07/19 09:21:36;;;;;;;5.35;2.03;;;;;;;;;;4139416;28;20502;-78
2023/07/19 09:23:38;;;;;;;4.90;1.25;;;;;;;;;;4131501;28;20137;-78
2023/07/19 09:25:52;;;;;;;1.45;1.00;;;;;;;;;;4131451;28;20050;-78
2023/07/19 09:27:53;;;;;;;2.45;1.33;;;;;;;;;;4138364;28;20042;-78
2023/07/19 09:29:54;;;;;;;2.25;1.10;;;;;;;;;;4131545;28;20042;-78
2023/07/19 09:31:58;;;;;;;3.63;1.10;;;;;;;;;;4138801;28;20042;-78
2023/07/19 09:33:59;;;;;;;4.78;0.90;;;;;;;;;;4129957;28;20046;-78
2023/07/19 09:36:01;;;;;;;3.20;1.48;;;;;;;;;;4147856;28;20136;-78
2023/07/19 09:38:04;;;;;;;3.08;1.88;;;;;;;;;;4148161;28;20046;-78
2023/07/19 09:40:05;;;;;;;1.98;0.98;;;;;;;;;;4148555;28;20042;-77
2023/07/19 09:42:08;;;;;;;3.28;1.30;;;;;;;;;;4147470;28;20050;-78
2023/07/19 09:44:11;;;;;;;1.67;1.25;;;;;;;;;;4143097;28;20117;-79
2023/07/19 09:46:12;;;;;;;2.15;1.10;;;;;;;;;;4149844;28;20038;-79
2023/07/19 09:48:16;;;;;;;6.20;1.80;;;;;;;;;;4149294;28;20057;-79
2023/07/19 09:50:18;;;;;;;3.13;1.00;;;;;;;;;;4149276;28;20042;-79
2023/07/19 09:52:19;;;;;;;4.32;0.75;;;;;;;;;;4149225;28;20050;-79
2023/07/19 09:54:21;;;;;;;4.93;1.30;;;;;;;;;;4149648;28;20049;-79
2023/07/19 09:56:22;;;;;;;1.30;0.82;;;;;;;;;;4150106;28;20105;-79
2023/07/19 09:58:23;;;;;;;5.55;1.38;;;;;;;;;;4149199;28;20085;-79
2023/07/19 10:00:25;;;;;;;5.20;0.98;;;;;;;;;;4132713;28;20057;-80
2023/07/19 10:02:26;;;;;;;1.65;0.70;;;;;;;;;;4152438;28;20524;-79
2023/07/19 10:04:28;;;;;;;1.88;0.90;;;;;;;;;;4151935;28;20034;-80
2023/07/19 10:06:30;;;;;;;1.85;0.90;;;;;;;;;;4118173;28;20046;-80
2023/07/19 10:08:31;;;;;;;4.30;0.85;;;;;;;;;;4134461;28;20106;-80
2023/07/19 10:10:41;;;;;;;2.03;0.65;;;;;;;;;;4136724;28;20046;-79
2023/07/19 10:12:46;;;;;;;2.67;0.75;;;;;;;;;;4135493;28;20043;-79
2023/07/19 10:14:58;;;;;;;3.90;0.90;;;20.00;99.90;;;;;;4136536;28;20042;-80
2023/07/19 10:17:01;;;;;;;4.07;1.02;;;22.70;99.90;;;;;;4136047;28;20051;-79
2023/07/19 10:19:12;;;;;;;2.15;0.80;;;22.50;99.90;;;;;;4136057;28;20096;-80
2023/07/19 10:21:18;;;;;;;5.05;0.80;;;22.50;99.90;;;;;;4136834;28;20451;-79
2023/07/19 10:23:19;;;;;;;2.13;0.85;;;22.50;99.90;;;;;;4136044;28;20069;-80
2023/07/19 10:25:49;;;;;;;2.38;0.90;;;22.50;99.90;;;;;;4135972;28;20046;-79
2023/07/19 10:27:59;;;;;;;1.40;0.70;;;22.60;99.90;;;;;;4135084;28;20403;-79
2023/07/19 10:30:04;;;;;;;1.35;0.70;;;22.90;99.90;;;;;;4135716;28;20050;-80
2023/07/19 10:32:07;;;;;;;3.17;0.70;;;23.10;99.90;;;;;;4135425;28;20384;-80
2023/07/19 10:34:08;;;;;;;1.95;0.75;;;23.10;99.90;;;;;;4134536;28;20085;-80
2023/07/19 10:36:11;;;;;;;2.85;0.80;;;23.00;99.90;;;;;;4135417;28;20046;-80
2023/07/19 10:38:16;;;;;;;1.38;0.82;;;22.90;99.90;;;;;;4126706;28;20447;-80
2023/07/19 10:40:16;;;;;;;2.85;0.70;;;22.90;99.90;;;;;;4130094;28;20444;-80
2023/07/19 10:42:17;;;;;;;2.17;0.88;;;22.80;99.90;;;;;;4135128;28;20061;-80
2023/07/19 10:44:18;;;;;;;3.75;0.63;;;22.80;99.90;;;;;;4124702;28;20042;-80
2023/07/19 10:46:19;;;;;;;1.92;0.50;;;23.30;99.90;;;;;;4119899;28;20050;-80
2023/07/19 10:48:28;;;;;;;1.45;0.50;;;23.50;99.90;;;;;;4119671;28;20455;-80
2023/07/19 10:50:29;;;;;;;1.73;0.98;;;23.60;99.90;;;;;;4118336;28;20050;-80
2023/07/19 10:52:30;;;;;;;4.72;0.82;;;23.70;99.90;;;;;;4118693;28;20046;-80
2023/07/19 10:54:30;;;;;;;2.33;0.70;;;24.00;99.90;;;;;;4118111;28;20580;-80
2023/07/19 10:56:32;;;;;;;2.35;0.88;;;24.00;99.90;;;;;;4129307;28;20482;-80
2023/07/19 10:58:33;;;;;;;2.47;0.70;;;24.00;99.90;;;;;;4135798;28;20458;-80
2023/07/19 11:00:40;;;;;;;1.75;0.77;;;24.20;99.90;;;;;;4133947;28;20050;-80
2023/07/19 11:02:41;;;;;;;1.00;0.85;;;24.50;99.90;;;;;;4135112;28;20061;-80
2023/07/19 11:04:42;;;;;;;1.20;0.50;;;24.90;99.90;;;;;;4134953;28;20042;-80